SKU011 SLVR-SPQU
Flight info
| Callsign | SKU011 |
|---|---|
| Flight time | 1h 37m |
| Altitude | 38000 |
| Route | DIBAS UM415 JUL/N0382F240 V14 TONOS |
| Aircraft | A320/M-SDE3FGHIRWY/LB1 |
Departure
| Time | 2026-05-06 22:40 |
|---|---|
| Airport | Viru Viru International Airport (SLVR) |
Arrival
| Time | 2026-05-07 00:18 |
|---|---|
| Airport | Rodríguez Ballón International Airport (SPQU) |
| Time | Latitude | Longitude | Altitude | Speed | Heading |
|---|---|---|---|---|---|
| 2026-05-06 22:19 | -17.64764 | -63.13976 | 1231 ft | 0 kts | 237° |
| 2026-05-06 22:29 | -17.64760 | -63.13969 | 1231 ft | 2 kts | 234° |
| 2026-05-06 22:29 | -17.64750 | -63.13954 | 1231 ft | 2 kts | 232° |
| 2026-05-06 22:30 | -17.64740 | -63.13941 | 1231 ft | 2 kts | 229° |
| 2026-05-06 22:30 | -17.64729 | -63.13928 | 1231 ft | 2 kts | 221° |
| 2026-05-06 22:30 | -17.64716 | -63.13917 | 1231 ft | 2 kts | 201° |
| 2026-05-06 22:30 | -17.64700 | -63.13915 | 1231 ft | 2 kts | 155° |
| 2026-05-06 22:31 | -17.64691 | -63.13919 | 1231 ft | 1 kts | 143° |
| 2026-05-06 22:32 | -17.64696 | -63.13916 | 1231 ft | 7 kts | 144° |
| 2026-05-06 22:32 | -17.64775 | -63.13864 | 1231 ft | 12 kts | 148° |
| 2026-05-06 22:33 | -17.64841 | -63.13821 | 1231 ft | 10 kts | 148° |
| 2026-05-06 22:33 | -17.64884 | -63.13775 | 1231 ft | 8 kts | 103° |
| 2026-05-06 22:33 | -17.64856 | -63.13702 | 1231 ft | 13 kts | 57° |
| 2026-05-06 22:33 | -17.64809 | -63.13624 | 1231 ft | 12 kts | 57° |
| 2026-05-06 22:34 | -17.64806 | -63.13557 | 1231 ft | 9 kts | 131° |
| 2026-05-06 22:34 | -17.64853 | -63.13521 | 1231 ft | 10 kts | 147° |
| 2026-05-06 22:34 | -17.64983 | -63.13437 | 1231 ft | 25 kts | 148° |
| 2026-05-06 22:34 | -17.65113 | -63.13351 | 1231 ft | 20 kts | 148° |
| 2026-05-06 22:35 | -17.65233 | -63.13273 | 1231 ft | 21 kts | 148° |
| 2026-05-06 22:35 | -17.65350 | -63.13186 | 1231 ft | 17 kts | 143° |
| 2026-05-06 22:35 | -17.65458 | -63.13118 | 1232 ft | 19 kts | 152° |
| 2026-05-06 22:35 | -17.65570 | -63.13042 | 1232 ft | 20 kts | 146° |
| 2026-05-06 22:36 | -17.65681 | -63.12962 | 1232 ft | 17 kts | 147° |
| 2026-05-06 22:36 | -17.65751 | -63.12916 | 1232 ft | 18 kts | 148° |
| 2026-05-06 22:36 | -17.65869 | -63.12827 | 1232 ft | 10 kts | 123° |
| 2026-05-06 22:36 | -17.65869 | -63.12769 | 1232 ft | 7 kts | 62° |
| 2026-05-06 22:37 | -17.65852 | -63.12738 | 1232 ft | 0 kts | 59° |
| 2026-05-06 22:38 | -17.65847 | -63.12731 | 1233 ft | 9 kts | 58° |
| 2026-05-06 22:38 | -17.65790 | -63.12664 | 1233 ft | 8 kts | 353° |
| 2026-05-06 22:39 | -17.65748 | -63.12682 | 1234 ft | 5 kts | 330° |
| 2026-05-06 22:39 | -17.65728 | -63.12696 | 1241 ft | 0 kts | 327° |
| 2026-05-06 22:39 | -17.65612 | -63.12777 | 1234 ft | 57 kts | 326° |
| 2026-05-06 22:40 | -17.65086 | -63.13130 | 1232 ft | 122 kts | 327° |
| 2026-05-06 22:40 | -17.64224 | -63.13714 | 1232 ft | 171 kts | 326° |
| 2026-05-06 22:40 | -17.63164 | -63.14463 | 1517 ft | 194 kts | 325° |
| 2026-05-06 22:40 | -17.62001 | -63.15287 | 2134 ft | 202 kts | 326° |
| 2026-05-06 22:41 | -17.59671 | -63.16927 | 3521 ft | 214 kts | 326° |
| 2026-05-06 22:41 | -17.58368 | -63.17846 | 3948 ft | 239 kts | 324° |
| 2026-05-06 22:41 | -17.57051 | -63.19038 | 4472 ft | 260 kts | 312° |
| 2026-05-06 22:42 | -17.55928 | -63.20555 | 5265 ft | 267 kts | 301° |
| 2026-05-06 22:42 | -17.54962 | -63.22241 | 6161 ft | 271 kts | 301° |
| 2026-05-06 22:42 | -17.53982 | -63.23948 | 7046 ft | 275 kts | 300° |
| 2026-05-06 22:42 | -17.52989 | -63.25670 | 7917 ft | 278 kts | 301° |
| 2026-05-06 22:43 | -17.51977 | -63.27419 | 8775 ft | 282 kts | 301° |
| 2026-05-06 22:43 | -17.50953 | -63.29188 | 9596 ft | 286 kts | 301° |
| 2026-05-06 22:43 | -17.49915 | -63.30979 | 10361 ft | 293 kts | 301° |
| 2026-05-06 22:43 | -17.48812 | -63.32882 | 10641 ft | 317 kts | 301° |
| 2026-05-06 22:44 | -17.47656 | -63.34883 | 11132 ft | 331 kts | 301° |
| 2026-05-06 22:44 | -17.46444 | -63.36986 | 11855 ft | 336 kts | 301° |
| 2026-05-06 22:44 | -17.45243 | -63.39067 | 12588 ft | 340 kts | 301° |
| 2026-05-06 22:44 | -17.44014 | -63.41193 | 13322 ft | 343 kts | 301° |
| 2026-05-06 22:45 | -17.42768 | -63.43346 | 14021 ft | 347 kts | 301° |
| 2026-05-06 22:45 | -17.41509 | -63.45522 | 14687 ft | 351 kts | 301° |
| 2026-05-06 22:45 | -17.40240 | -63.47711 | 15351 ft | 354 kts | 301° |
| 2026-05-06 22:45 | -17.38952 | -63.49931 | 15993 ft | 358 kts | 301° |
| 2026-05-06 22:46 | -17.37657 | -63.52162 | 16626 ft | 361 kts | 301° |
| 2026-05-06 22:46 | -17.36346 | -63.54422 | 17248 ft | 364 kts | 301° |
| 2026-05-06 22:46 | -17.35075 | -63.56724 | 17834 ft | 368 kts | 295° |
| 2026-05-06 22:46 | -17.34183 | -63.59244 | 18403 ft | 371 kts | 284° |
| 2026-05-06 22:47 | -17.33742 | -63.61917 | 18969 ft | 374 kts | 277° |
| 2026-05-06 22:47 | -17.33392 | -63.64621 | 19534 ft | 377 kts | 277° |
| 2026-05-06 22:47 | -17.33156 | -63.66425 | 19897 ft | 379 kts | 278° |
| 2026-05-06 22:47 | -17.32794 | -63.69173 | 20432 ft | 382 kts | 278° |
| 2026-05-06 22:48 | -17.32423 | -63.71943 | 20955 ft | 385 kts | 278° |
| 2026-05-06 22:48 | -17.31923 | -63.75639 | 21628 ft | 389 kts | 278° |
| 2026-05-06 22:48 | -17.31667 | -63.77539 | 21941 ft | 391 kts | 278° |
| 2026-05-06 22:48 | -17.31165 | -63.81291 | 22572 ft | 395 kts | 278° |
| 2026-05-06 22:49 | -17.30784 | -63.84153 | 23042 ft | 398 kts | 278° |
| 2026-05-06 22:49 | -17.30525 | -63.86095 | 23344 ft | 400 kts | 278° |
| 2026-05-06 22:49 | -17.30143 | -63.88951 | 23779 ft | 403 kts | 278° |
| 2026-05-06 22:49 | -17.29747 | -63.91895 | 24206 ft | 405 kts | 278° |
| 2026-05-06 22:50 | -17.29358 | -63.94792 | 24625 ft | 408 kts | 278° |
| 2026-05-06 22:50 | -17.28962 | -63.97740 | 25039 ft | 410 kts | 278° |
| 2026-05-06 22:50 | -17.28562 | -64.00700 | 25438 ft | 413 kts | 278° |
| 2026-05-06 22:50 | -17.28156 | -64.03688 | 25823 ft | 416 kts | 278° |
| 2026-05-06 22:51 | -17.27749 | -64.06684 | 26201 ft | 418 kts | 278° |
| 2026-05-06 22:51 | -17.27340 | -64.09707 | 26578 ft | 420 kts | 278° |
| 2026-05-06 22:51 | -17.26930 | -64.12748 | 26943 ft | 423 kts | 278° |
| 2026-05-06 22:51 | -17.26518 | -64.15794 | 27305 ft | 425 kts | 278° |
| 2026-05-06 22:52 | -17.26097 | -64.18867 | 27653 ft | 427 kts | 278° |
| 2026-05-06 22:52 | -17.25677 | -64.21958 | 27993 ft | 430 kts | 278° |
| 2026-05-06 22:52 | -17.25258 | -64.25056 | 28338 ft | 432 kts | 278° |
| 2026-05-06 22:52 | -17.24833 | -64.28179 | 28674 ft | 434 kts | 278° |
| 2026-05-06 22:53 | -17.24405 | -64.31307 | 29007 ft | 436 kts | 278° |
| 2026-05-06 22:53 | -17.23974 | -64.34461 | 29331 ft | 439 kts | 278° |
| 2026-05-06 22:53 | -17.23537 | -64.37631 | 29620 ft | 441 kts | 278° |
| 2026-05-06 22:53 | -17.23098 | -64.40816 | 29919 ft | 443 kts | 278° |
| 2026-05-06 22:54 | -17.22660 | -64.44017 | 30210 ft | 445 kts | 278° |
| 2026-05-06 22:54 | -17.22198 | -64.47217 | 30485 ft | 447 kts | 281° |
| 2026-05-06 22:54 | -17.21383 | -64.50317 | 30747 ft | 449 kts | 288° |
| 2026-05-06 22:54 | -17.20425 | -64.53435 | 31003 ft | 451 kts | 288° |
| 2026-05-06 22:55 | -17.19469 | -64.56557 | 31260 ft | 453 kts | 288° |
| 2026-05-06 22:55 | -17.18509 | -64.59706 | 31605 ft | 452 kts | 287° |
| 2026-05-06 22:55 | -17.17562 | -64.62829 | 31976 ft | 451 kts | 287° |
| 2026-05-06 22:55 | -17.16615 | -64.65958 | 32333 ft | 450 kts | 287° |
| 2026-05-06 22:56 | -17.15669 | -64.69065 | 32684 ft | 449 kts | 288° |
| 2026-05-06 22:56 | -17.14716 | -64.72180 | 33021 ft | 448 kts | 288° |
| 2026-05-06 22:56 | -17.13769 | -64.75276 | 33360 ft | 448 kts | 288° |
| 2026-05-06 22:56 | -17.12822 | -64.78378 | 33692 ft | 447 kts | 288° |
| 2026-05-06 22:57 | -17.11887 | -64.81434 | 34009 ft | 446 kts | 288° |
| 2026-05-06 22:57 | -17.10930 | -64.84557 | 34335 ft | 446 kts | 288° |
| 2026-05-06 22:57 | -17.09994 | -64.87602 | 34640 ft | 445 kts | 288° |
| 2026-05-06 22:57 | -17.09048 | -64.90675 | 34930 ft | 445 kts | 288° |
| 2026-05-06 22:58 | -17.08101 | -64.93755 | 35211 ft | 444 kts | 288° |
| 2026-05-06 22:58 | -17.07155 | -64.96832 | 35482 ft | 444 kts | 288° |
| 2026-05-06 22:58 | -17.06213 | -64.99894 | 35750 ft | 443 kts | 288° |
| 2026-05-06 22:58 | -17.05269 | -65.02964 | 35960 ft | 444 kts | 288° |
| 2026-05-06 22:59 | -17.04325 | -65.06037 | 36010 ft | 443 kts | 288° |
| 2026-05-06 22:59 | -17.02447 | -65.12161 | 36012 ft | 442 kts | 288° |
| 2026-05-06 23:00 | -17.00561 | -65.18275 | 36012 ft | 442 kts | 288° |
| 2026-05-06 23:00 | -16.98672 | -65.24398 | 36012 ft | 442 kts | 288° |
| 2026-05-06 23:01 | -16.96788 | -65.30513 | 36012 ft | 442 kts | 288° |
| 2026-05-06 23:01 | -16.94911 | -65.36591 | 36012 ft | 442 kts | 288° |
| 2026-05-06 23:02 | -16.93020 | -65.42695 | 36012 ft | 442 kts | 288° |
| 2026-05-06 23:02 | -16.91119 | -65.48811 | 36012 ft | 442 kts | 288° |
| 2026-05-06 23:03 | -16.89221 | -65.54917 | 36012 ft | 442 kts | 288° |
| 2026-05-06 23:03 | -16.87325 | -65.61031 | 36012 ft | 443 kts | 288° |
| 2026-05-06 23:04 | -16.85437 | -65.67119 | 36012 ft | 444 kts | 288° |
| 2026-05-06 23:04 | -16.83522 | -65.73253 | 36011 ft | 445 kts | 288° |
| 2026-05-06 23:05 | -16.81624 | -65.79424 | 36013 ft | 447 kts | 287° |
| 2026-05-06 23:05 | -16.79769 | -65.85615 | 36012 ft | 446 kts | 287° |
| 2026-05-06 23:06 | -16.77914 | -65.91791 | 36011 ft | 447 kts | 287° |
| 2026-05-06 23:06 | -16.76039 | -65.97991 | 36012 ft | 450 kts | 287° |
| 2026-05-06 23:07 | -16.74144 | -66.04243 | 36013 ft | 452 kts | 287° |
| 2026-05-06 23:07 | -16.72251 | -66.10480 | 36013 ft | 455 kts | 287° |
| 2026-05-06 23:08 | -16.70335 | -66.16766 | 36013 ft | 453 kts | 287° |
| 2026-05-06 23:08 | -16.68437 | -66.23014 | 36011 ft | 452 kts | 287° |
| 2026-05-06 23:09 | -16.66529 | -66.29287 | 36012 ft | 455 kts | 288° |
| 2026-05-06 23:09 | -16.64601 | -66.35572 | 36012 ft | 455 kts | 288° |
| 2026-05-06 23:10 | -16.62688 | -66.41836 | 36012 ft | 452 kts | 287° |
| 2026-05-06 23:10 | -16.60790 | -66.48105 | 36012 ft | 454 kts | 287° |
| 2026-05-06 23:11 | -16.58906 | -66.54342 | 36011 ft | 453 kts | 287° |
| 2026-05-06 23:11 | -16.57006 | -66.60603 | 36011 ft | 452 kts | 287° |
| 2026-05-06 23:12 | -16.55094 | -66.66869 | 36011 ft | 457 kts | 287° |
| 2026-05-06 23:12 | -16.53168 | -66.73182 | 36012 ft | 457 kts | 287° |
| 2026-05-06 23:13 | -16.51256 | -66.79451 | 36011 ft | 450 kts | 287° |
| 2026-05-06 23:13 | -16.49357 | -66.85673 | 36012 ft | 452 kts | 287° |
| 2026-05-06 23:14 | -16.47444 | -66.91938 | 36011 ft | 455 kts | 287° |
| 2026-05-06 23:14 | -16.45512 | -66.98249 | 36013 ft | 458 kts | 288° |
| 2026-05-06 23:15 | -16.43567 | -67.04571 | 36011 ft | 459 kts | 288° |
| 2026-05-06 23:15 | -16.41624 | -67.10880 | 36012 ft | 456 kts | 288° |
| 2026-05-06 23:16 | -16.39704 | -67.17118 | 36013 ft | 454 kts | 288° |
| 2026-05-06 23:16 | -16.37771 | -67.23413 | 36013 ft | 458 kts | 288° |
| 2026-05-06 23:17 | -16.35844 | -67.29671 | 36012 ft | 450 kts | 288° |
| 2026-05-06 23:17 | -16.33910 | -67.35929 | 36013 ft | 456 kts | 288° |
| 2026-05-06 23:18 | -16.31973 | -67.42198 | 36012 ft | 454 kts | 288° |
| 2026-05-06 23:18 | -16.30055 | -67.48404 | 36012 ft | 448 kts | 288° |
| 2026-05-06 23:19 | -16.28146 | -67.54585 | 36012 ft | 448 kts | 288° |
| 2026-05-06 23:19 | -16.26235 | -67.60756 | 36012 ft | 449 kts | 288° |
| 2026-05-06 23:20 | -16.24322 | -67.66915 | 36012 ft | 451 kts | 288° |
| 2026-05-06 23:20 | -16.22388 | -67.73155 | 36013 ft | 454 kts | 288° |
| 2026-05-06 23:21 | -16.20489 | -67.79380 | 36011 ft | 450 kts | 287° |
| 2026-05-06 23:21 | -16.18612 | -67.85585 | 36012 ft | 451 kts | 287° |
| 2026-05-06 23:22 | -16.16707 | -67.91835 | 36012 ft | 456 kts | 287° |
| 2026-05-06 23:22 | -16.14774 | -67.98134 | 36012 ft | 458 kts | 288° |
| 2026-05-06 23:23 | -16.12842 | -68.04430 | 36012 ft | 461 kts | 288° |
| 2026-05-06 23:23 | -16.10901 | -68.10766 | 36011 ft | 459 kts | 288° |
| 2026-05-06 23:24 | -16.08951 | -68.17105 | 36011 ft | 463 kts | 288° |
| 2026-05-06 23:24 | -16.06995 | -68.23503 | 36013 ft | 466 kts | 287° |
| 2026-05-06 23:25 | -16.05031 | -68.29941 | 36011 ft | 468 kts | 287° |
| 2026-05-06 23:25 | -16.03051 | -68.36406 | 36011 ft | 469 kts | 287° |
| 2026-05-06 23:26 | -16.01067 | -68.42871 | 36011 ft | 470 kts | 288° |
| 2026-05-06 23:26 | -15.99080 | -68.49347 | 36012 ft | 470 kts | 287° |
| 2026-05-06 23:27 | -15.97114 | -68.55827 | 36011 ft | 470 kts | 287° |
| 2026-05-06 23:27 | -15.95159 | -68.62283 | 36012 ft | 467 kts | 287° |
| 2026-05-06 23:28 | -15.93218 | -68.68634 | 36012 ft | 461 kts | 287° |
| 2026-05-06 23:28 | -15.91285 | -68.74967 | 36013 ft | 460 kts | 287° |
| 2026-05-06 23:29 | -15.89349 | -68.81303 | 36011 ft | 459 kts | 287° |
| 2026-05-06 23:29 | -15.87408 | -68.87623 | 36012 ft | 460 kts | 288° |
| 2026-05-06 23:30 | -15.85468 | -68.93944 | 36011 ft | 460 kts | 287° |
| 2026-05-06 23:30 | -15.83529 | -69.00277 | 36011 ft | 460 kts | 287° |
| 2026-05-06 23:31 | -15.81593 | -69.06597 | 36016 ft | 459 kts | 288° |
| 2026-05-06 23:31 | -15.79667 | -69.12870 | 36020 ft | 459 kts | 288° |
| 2026-05-06 23:32 | -15.77717 | -69.19192 | 36022 ft | 459 kts | 288° |
| 2026-05-06 23:32 | -15.75762 | -69.25510 | 36022 ft | 459 kts | 288° |
| 2026-05-06 23:33 | -15.73823 | -69.31812 | 36022 ft | 459 kts | 288° |
| 2026-05-06 23:33 | -15.71880 | -69.38129 | 36022 ft | 459 kts | 288° |
| 2026-05-06 23:34 | -15.69886 | -69.44415 | 36022 ft | 459 kts | 288° |
| 2026-05-06 23:34 | -15.67830 | -69.50675 | 36021 ft | 458 kts | 289° |
| 2026-05-06 23:35 | -15.65785 | -69.56903 | 36019 ft | 459 kts | 288° |
| 2026-05-06 23:35 | -15.63746 | -69.63171 | 36020 ft | 459 kts | 288° |
| 2026-05-06 23:36 | -15.61707 | -69.69442 | 36021 ft | 459 kts | 288° |
| 2026-05-06 23:36 | -15.59663 | -69.75716 | 36021 ft | 458 kts | 288° |
| 2026-05-06 23:37 | -15.57627 | -69.81982 | 36021 ft | 459 kts | 288° |
| 2026-05-06 23:37 | -15.55586 | -69.88256 | 36022 ft | 459 kts | 288° |
| 2026-05-06 23:38 | -15.53546 | -69.94489 | 36022 ft | 459 kts | 289° |
| 2026-05-06 23:38 | -15.51489 | -70.00749 | 36021 ft | 459 kts | 289° |
| 2026-05-06 23:39 | -15.49437 | -70.07005 | 36021 ft | 458 kts | 288° |
| 2026-05-06 23:39 | -15.48402 | -70.13486 | 36021 ft | 457 kts | 267° |
| 2026-05-06 23:39 | -15.48820 | -70.16741 | 36017 ft | 457 kts | 256° |
| 2026-05-06 23:40 | -15.49849 | -70.19855 | 36015 ft | 457 kts | 244° |
| 2026-05-06 23:40 | -15.53114 | -70.25494 | 36006 ft | 457 kts | 238° |
| 2026-05-06 23:41 | -15.56507 | -70.31080 | 36002 ft | 457 kts | 238° |
| 2026-05-06 23:41 | -15.59892 | -70.36671 | 35865 ft | 460 kts | 238° |
| 2026-05-06 23:41 | -15.61600 | -70.39497 | 35236 ft | 462 kts | 238° |
| 2026-05-06 23:42 | -15.63297 | -70.42309 | 34614 ft | 460 kts | 238° |
| 2026-05-06 23:42 | -15.64995 | -70.45120 | 33987 ft | 458 kts | 238° |
| 2026-05-06 23:42 | -15.66667 | -70.47883 | 33368 ft | 457 kts | 238° |
| 2026-05-06 23:42 | -15.68375 | -70.50700 | 32736 ft | 455 kts | 238° |
| 2026-05-06 23:43 | -15.70037 | -70.53442 | 32127 ft | 454 kts | 238° |
| 2026-05-06 23:43 | -15.71711 | -70.56204 | 31494 ft | 452 kts | 238° |
| 2026-05-06 23:43 | -15.73382 | -70.58967 | 30868 ft | 451 kts | 238° |
| 2026-05-06 23:43 | -15.75044 | -70.61721 | 30236 ft | 449 kts | 238° |
| 2026-05-06 23:44 | -15.76695 | -70.64455 | 29618 ft | 447 kts | 238° |
| 2026-05-06 23:44 | -15.78345 | -70.67188 | 28992 ft | 445 kts | 238° |
| 2026-05-06 23:44 | -15.79987 | -70.69910 | 28368 ft | 443 kts | 238° |
| 2026-05-06 23:44 | -15.81617 | -70.72611 | 27731 ft | 441 kts | 238° |
| 2026-05-06 23:45 | -15.83243 | -70.75309 | 27115 ft | 439 kts | 238° |
| 2026-05-06 23:45 | -15.84861 | -70.77991 | 26488 ft | 436 kts | 238° |
| 2026-05-06 23:45 | -15.85926 | -70.79756 | 26074 ft | 435 kts | 238° |
| 2026-05-06 23:45 | -15.87530 | -70.82412 | 25447 ft | 432 kts | 238° |
| 2026-05-06 23:46 | -15.89118 | -70.85045 | 24822 ft | 430 kts | 238° |
| 2026-05-06 23:46 | -15.90700 | -70.87672 | 24195 ft | 427 kts | 238° |
| 2026-05-06 23:46 | -15.92272 | -70.90285 | 23568 ft | 425 kts | 238° |
| 2026-05-06 23:46 | -15.93836 | -70.92882 | 22941 ft | 422 kts | 238° |
| 2026-05-06 23:47 | -15.95387 | -70.95459 | 22316 ft | 421 kts | 238° |
| 2026-05-06 23:47 | -15.96934 | -70.98034 | 21683 ft | 419 kts | 238° |
| 2026-05-06 23:47 | -15.98476 | -71.00600 | 21057 ft | 417 kts | 238° |
| 2026-05-06 23:47 | -16.00013 | -71.03154 | 20428 ft | 416 kts | 238° |
| 2026-05-06 23:48 | -16.01542 | -71.05689 | 19807 ft | 414 kts | 238° |
| 2026-05-06 23:48 | -16.03051 | -71.08189 | 19193 ft | 412 kts | 238° |
| 2026-05-06 23:48 | -16.04568 | -71.10705 | 18567 ft | 411 kts | 238° |
| 2026-05-06 23:48 | -16.06079 | -71.13222 | 17939 ft | 409 kts | 238° |
| 2026-05-06 23:49 | -16.07582 | -71.15731 | 17307 ft | 408 kts | 238° |
| 2026-05-06 23:49 | -16.09075 | -71.18222 | 16680 ft | 406 kts | 238° |
| 2026-05-06 23:49 | -16.10570 | -71.20717 | 16108 ft | 404 kts | 238° |
| 2026-05-06 23:49 | -16.12022 | -71.23140 | 16074 ft | 387 kts | 238° |
| 2026-05-06 23:50 | -16.13419 | -71.25468 | 16070 ft | 371 kts | 238° |
| 2026-05-06 23:50 | -16.16042 | -71.29836 | 16067 ft | 342 kts | 238° |
| 2026-05-06 23:50 | -16.17290 | -71.31918 | 16064 ft | 336 kts | 238° |
| 2026-05-06 23:51 | -16.18521 | -71.33974 | 16062 ft | 335 kts | 238° |
| 2026-05-06 23:51 | -16.19755 | -71.36033 | 16062 ft | 335 kts | 238° |
| 2026-05-06 23:51 | -16.20987 | -71.38089 | 16061 ft | 334 kts | 238° |
| 2026-05-06 23:51 | -16.22214 | -71.40139 | 16061 ft | 335 kts | 238° |
| 2026-05-06 23:52 | -16.23431 | -71.42171 | 16061 ft | 335 kts | 238° |
| 2026-05-06 23:52 | -16.24681 | -71.44258 | 16061 ft | 335 kts | 238° |
| 2026-05-06 23:52 | -16.25896 | -71.46284 | 16060 ft | 333 kts | 238° |
| 2026-05-06 23:52 | -16.27120 | -71.48327 | 16061 ft | 333 kts | 238° |
| 2026-05-06 23:53 | -16.28329 | -71.50349 | 16062 ft | 323 kts | 238° |
| 2026-05-06 23:53 | -16.29497 | -71.52306 | 16060 ft | 317 kts | 238° |
| 2026-05-06 23:53 | -16.30658 | -71.54254 | 15842 ft | 316 kts | 238° |
| 2026-05-06 23:53 | -16.31822 | -71.56202 | 15466 ft | 317 kts | 238° |
| 2026-05-06 23:54 | -16.32855 | -71.58215 | 15092 ft | 316 kts | 248° |
| 2026-05-06 23:54 | -16.33500 | -71.60402 | 14714 ft | 316 kts | 259° |
| 2026-05-06 23:54 | -16.33738 | -71.62665 | 14338 ft | 316 kts | 269° |
| 2026-05-06 23:54 | -16.33641 | -71.64948 | 13963 ft | 315 kts | 273° |
| 2026-05-06 23:55 | -16.33517 | -71.67226 | 13667 ft | 313 kts | 273° |
| 2026-05-06 23:55 | -16.33400 | -71.69448 | 13630 ft | 301 kts | 273° |
| 2026-05-06 23:55 | -16.33289 | -71.71569 | 13638 ft | 288 kts | 273° |
| 2026-05-06 23:55 | -16.33182 | -71.73610 | 13639 ft | 278 kts | 273° |
| 2026-05-06 23:56 | -16.33078 | -71.75591 | 13640 ft | 269 kts | 273° |
| 2026-05-06 23:56 | -16.32977 | -71.77516 | 13639 ft | 264 kts | 273° |
| 2026-05-06 23:56 | -16.32877 | -71.79394 | 13640 ft | 263 kts | 273° |
| 2026-05-06 23:56 | -16.32775 | -71.81294 | 13641 ft | 262 kts | 273° |
| 2026-05-06 23:57 | -16.32672 | -71.83207 | 13645 ft | 270 kts | 273° |
| 2026-05-06 23:57 | -16.32567 | -71.85177 | 13642 ft | 274 kts | 273° |
| 2026-05-06 23:57 | -16.32465 | -71.87162 | 13642 ft | 275 kts | 272° |
| 2026-05-06 23:57 | -16.32383 | -71.89149 | 13640 ft | 274 kts | 272° |
| 2026-05-06 23:58 | -16.32309 | -71.91134 | 13641 ft | 274 kts | 272° |
| 2026-05-06 23:58 | -16.32235 | -71.93117 | 13641 ft | 274 kts | 272° |
| 2026-05-06 23:58 | -16.32156 | -71.95092 | 13641 ft | 274 kts | 272° |
| 2026-05-06 23:58 | -16.32077 | -71.97072 | 13641 ft | 273 kts | 272° |
| 2026-05-06 23:59 | -16.31997 | -71.99025 | 13641 ft | 273 kts | 272° |
| 2026-05-06 23:59 | -16.31917 | -72.01003 | 13640 ft | 271 kts | 272° |
| 2026-05-06 23:59 | -16.31838 | -72.02913 | 13636 ft | 258 kts | 272° |
| 2026-05-06 23:59 | -16.31936 | -72.04737 | 13638 ft | 250 kts | 252° |
| 2026-05-07 00:00 | -16.32812 | -72.06271 | 13641 ft | 249 kts | 222° |
| 2026-05-07 00:00 | -16.34307 | -72.07127 | 13642 ft | 249 kts | 192° |
| 2026-05-07 00:00 | -16.36023 | -72.07077 | 13641 ft | 250 kts | 161° |
| 2026-05-07 00:00 | -16.37483 | -72.06127 | 13641 ft | 250 kts | 131° |
| 2026-05-07 00:01 | -16.38283 | -72.04542 | 13641 ft | 251 kts | 101° |
| 2026-05-07 00:01 | -16.38208 | -72.02747 | 13640 ft | 251 kts | 70° |
| 2026-05-07 00:01 | -16.37304 | -72.01218 | 13642 ft | 251 kts | 47° |
| 2026-05-07 00:01 | -16.36084 | -71.99912 | 13642 ft | 252 kts | 44° |
| 2026-05-07 00:02 | -16.34825 | -71.98642 | 13640 ft | 252 kts | 43° |
| 2026-05-07 00:02 | -16.33633 | -71.97312 | 13641 ft | 252 kts | 52° |
| 2026-05-07 00:02 | -16.32786 | -71.95718 | 13643 ft | 252 kts | 68° |
| 2026-05-07 00:02 | -16.32208 | -71.93990 | 13636 ft | 253 kts | 79° |
| 2026-05-07 00:03 | -16.32117 | -71.92173 | 13645 ft | 253 kts | 93° |
| 2026-05-07 00:03 | -16.32237 | -71.90367 | 13646 ft | 253 kts | 94° |
| 2026-05-07 00:03 | -16.32358 | -71.88517 | 13645 ft | 252 kts | 93° |
| 2026-05-07 00:03 | -16.32457 | -71.86742 | 13490 ft | 247 kts | 93° |
| 2026-05-07 00:04 | -16.32553 | -71.84965 | 13223 ft | 243 kts | 93° |
| 2026-05-07 00:04 | -16.32647 | -71.83230 | 12880 ft | 237 kts | 93° |
| 2026-05-07 00:04 | -16.32739 | -71.81538 | 12565 ft | 232 kts | 93° |
| 2026-05-07 00:04 | -16.32830 | -71.79879 | 12262 ft | 227 kts | 93° |
| 2026-05-07 00:05 | -16.32918 | -71.78249 | 11959 ft | 224 kts | 93° |
| 2026-05-07 00:05 | -16.33006 | -71.76641 | 11669 ft | 222 kts | 93° |
| 2026-05-07 00:05 | -16.33093 | -71.75038 | 11375 ft | 221 kts | 93° |
| 2026-05-07 00:05 | -16.33179 | -71.73444 | 11081 ft | 219 kts | 93° |
| 2026-05-07 00:06 | -16.33264 | -71.71873 | 10792 ft | 215 kts | 93° |
| 2026-05-07 00:06 | -16.33347 | -71.70327 | 10506 ft | 212 kts | 93° |
| 2026-05-07 00:06 | -16.33429 | -71.68811 | 10232 ft | 209 kts | 93° |
| 2026-05-07 00:06 | -16.33509 | -71.67324 | 9955 ft | 207 kts | 93° |
| 2026-05-07 00:07 | -16.33592 | -71.65789 | 9688 ft | 216 kts | 93° |
| 2026-05-07 00:07 | -16.33676 | -71.64230 | 9397 ft | 219 kts | 93° |
| 2026-05-07 00:07 | -16.33761 | -71.62643 | 9101 ft | 219 kts | 93° |
| 2026-05-07 00:07 | -16.33845 | -71.61069 | 8808 ft | 218 kts | 93° |
| 2026-05-07 00:08 | -16.33929 | -71.59496 | 8539 ft | 213 kts | 93° |
| 2026-05-07 00:08 | -16.34009 | -71.57984 | 8465 ft | 201 kts | 93° |
| 2026-05-07 00:08 | -16.34077 | -71.56611 | 9014 ft | 180 kts | 93° |
| 2026-05-07 00:08 | -16.34354 | -71.55420 | 9550 ft | 163 kts | 126° |
| 2026-05-07 00:09 | -16.35252 | -71.54774 | 9835 ft | 166 kts | 168° |
| 2026-05-07 00:09 | -16.36441 | -71.54850 | 9848 ft | 184 kts | 205° |
| 2026-05-07 00:09 | -16.37371 | -71.55788 | 9850 ft | 196 kts | 244° |
| 2026-05-07 00:09 | -16.37706 | -71.57177 | 9832 ft | 202 kts | 262° |
| 2026-05-07 00:10 | -16.37880 | -71.58636 | 9827 ft | 208 kts | 263° |
| 2026-05-07 00:10 | -16.38038 | -71.60198 | 9842 ft | 230 kts | 265° |
| 2026-05-07 00:10 | -16.38126 | -71.61909 | 9838 ft | 235 kts | 268° |
| 2026-05-07 00:10 | -16.38186 | -71.63594 | 9838 ft | 237 kts | 268° |
| 2026-05-07 00:11 | -16.38244 | -71.65310 | 9839 ft | 237 kts | 268° |
| 2026-05-07 00:11 | -16.38301 | -71.67021 | 10011 ft | 236 kts | 268° |
| 2026-05-07 00:11 | -16.38357 | -71.68737 | 10178 ft | 239 kts | 269° |
| 2026-05-07 00:11 | -16.38353 | -71.70467 | 10216 ft | 239 kts | 271° |
| 2026-05-07 00:12 | -16.38325 | -71.72193 | 10217 ft | 238 kts | 271° |
| 2026-05-07 00:12 | -16.38293 | -71.73910 | 10219 ft | 238 kts | 271° |
| 2026-05-07 00:12 | -16.38261 | -71.75631 | 10218 ft | 237 kts | 271° |
| 2026-05-07 00:12 | -16.38200 | -71.77305 | 10214 ft | 224 kts | 279° |
| 2026-05-07 00:13 | -16.37581 | -71.78698 | 10206 ft | 207 kts | 315° |
| 2026-05-07 00:13 | -16.36356 | -71.79394 | 10223 ft | 203 kts | 349° |
| 2026-05-07 00:13 | -16.34967 | -71.79322 | 10232 ft | 202 kts | 18° |
| 2026-05-07 00:13 | -16.33800 | -71.78580 | 10217 ft | 195 kts | 47° |
| 2026-05-07 00:14 | -16.33128 | -71.77398 | 10219 ft | 193 kts | 75° |
| 2026-05-07 00:14 | -16.33034 | -71.76011 | 10228 ft | 193 kts | 93° |
| 2026-05-07 00:14 | -16.33114 | -71.74610 | 10220 ft | 194 kts | 94° |
| 2026-05-07 00:14 | -16.33191 | -71.73213 | 10219 ft | 194 kts | 93° |
| 2026-05-07 00:15 | -16.33267 | -71.71811 | 10219 ft | 194 kts | 93° |
| 2026-05-07 00:15 | -16.33343 | -71.70409 | 10229 ft | 193 kts | 93° |
| 2026-05-07 00:15 | -16.33419 | -71.69007 | 10184 ft | 194 kts | 93° |
| 2026-05-07 00:15 | -16.33491 | -71.67659 | 10012 ft | 180 kts | 93° |
| 2026-05-07 00:16 | -16.33560 | -71.66387 | 9772 ft | 173 kts | 93° |
| 2026-05-07 00:16 | -16.33626 | -71.65151 | 9553 ft | 170 kts | 94° |
| 2026-05-07 00:16 | -16.33692 | -71.63925 | 9334 ft | 168 kts | 93° |
| 2026-05-07 00:16 | -16.33757 | -71.62713 | 9097 ft | 168 kts | 93° |
| 2026-05-07 00:17 | -16.33822 | -71.61502 | 8887 ft | 167 kts | 93° |
| 2026-05-07 00:17 | -16.33886 | -71.60295 | 8667 ft | 166 kts | 93° |
| 2026-05-07 00:17 | -16.33950 | -71.59098 | 8446 ft | 166 kts | 93° |
| 2026-05-07 00:17 | -16.34015 | -71.57908 | 8336 ft | 163 kts | 93° |
| 2026-05-07 00:18 | -16.34072 | -71.56871 | 8366 ft | 110 kts | 93° |
| 2026-05-07 00:18 | -16.34099 | -71.56292 | 8401 ft | 40 kts | 93° |
| 2026-05-07 00:18 | -16.34110 | -71.56069 | 8413 ft | 28 kts | 93° |
| 2026-05-07 00:18 | -16.34121 | -71.55883 | 8424 ft | 23 kts | 94° |
| 2026-05-07 00:19 | -16.34125 | -71.55765 | 8431 ft | 14 kts | 90° |
| 2026-05-07 00:19 | -16.34164 | -71.55740 | 8431 ft | 6 kts | 223° |
| 2026-05-07 00:19 | -16.34195 | -71.55781 | 8429 ft | 3 kts | 237° |
| 2026-05-07 00:19 | -16.34210 | -71.55805 | 8428 ft | 5 kts | 237° |
| 2026-05-07 00:20 | -16.34235 | -71.55847 | 8429 ft | 9 kts | 237° |
| 2026-05-07 00:20 | -16.34278 | -71.55915 | 8421 ft | 14 kts | 237° |
| 2026-05-07 00:20 | -16.34339 | -71.56010 | 8416 ft | 18 kts | 235° |
| 2026-05-07 00:20 | -16.34377 | -71.56121 | 8410 ft | 18 kts | 274° |
| 2026-05-07 00:21 | -16.34369 | -71.56263 | 8402 ft | 15 kts | 273° |
| 2026-05-07 00:21 | -16.34364 | -71.56393 | 8395 ft | 21 kts | 272° |
| 2026-05-07 00:21 | -16.34359 | -71.56510 | 8389 ft | 18 kts | 273° |
| 2026-05-07 00:21 | -16.34352 | -71.56616 | 8383 ft | 12 kts | 274° |
| 2026-05-07 00:22 | -16.34346 | -71.56712 | 8378 ft | 14 kts | 274° |
| 2026-05-07 00:22 | -16.34359 | -71.56759 | 8373 ft | 4 kts | 225° |
| 2026-05-07 00:22 | -16.34379 | -71.56777 | 8374 ft | 4 kts | 219° |
| 2026-05-07 00:22 | -16.34386 | -71.56783 | 8374 ft | 0 kts | 219° |